Time;durP1;ratioP1;P1;durP2;ratioP2;P2;SDS_P1;SDS_P2;PMS_P1;PMS_P2;Temp;Humidity;BMP_temperature;BMP_pressure;BME280_temperature;BME280_humidity;BME280_pressure;Samples;Min_cycle;Max_cycle;Signal;HPM_P1;HPM_P2
2023/06/23 00:00:59;;;;;;;3.25;1.70;;;;;;;;;;5073541;28;20468;-80
2023/06/23 00:03:25;;;;;;;4.20;1.52;;;;;;;;;;5056553;28;20020;-79
2023/06/23 00:05:50;;;;;;;1.55;1.30;;;;;;;;;;5055613;28;20509;-80
2023/06/23 00:08:16;;;;;;;1.65;1.42;;;;;;;;;;5073542;28;20540;-80
2023/06/23 00:10:43;;;;;;;2.00;1.50;;;;;;;;;;5038551;28;20024;-80
2023/06/23 00:13:09;;;;;;;2.38;1.52;;;;;;;;;;5056252;28;20077;-80
2023/06/23 00:15:35;;;;;;;1.98;1.50;;;;;;;;;;5055514;28;20506;-82
2023/06/23 00:18:00;;;;;;;1.58;1.38;;;;;;;;;;5073585;28;20033;-82
2023/06/23 00:20:26;;;;;;;1.95;1.30;;;;;;;;;;5073270;28;20036;-80
2023/06/23 00:22:52;;;;;;;2.95;1.60;;;;;;;;;;5073273;28;20035;-80
2023/06/23 00:25:18;;;;;;;1.73;1.50;;;;;;;;;;5073490;28;20036;-80
2023/06/23 00:27:47;;;;;;;1.42;1.33;;;;;;;;;;5055510;28;20032;-80
2023/06/23 00:30:13;;;;;;;1.40;1.30;;;;;;;;;;5055749;28;20036;-82
2023/06/23 00:32:39;;;;;;;2.15;1.40;;;;;;;;;;5055135;28;20094;-79
2023/06/23 00:35:08;;;;;;;1.40;1.30;;;;;;;;;;5055276;28;20028;-79
2023/06/23 00:37:37;;;;;;;1.60;1.50;;;;;;;;;;5073275;28;20036;-79
2023/06/23 00:40:04;;;;;;;3.08;1.50;;;;;;;;;;5055035;28;20449;-80
2023/06/23 00:42:31;;;;;;;1.45;1.35;;;;;;;;;;5055451;28;20463;-79
2023/06/23 00:44:57;;;;;;;1.75;1.40;;;;;;;;;;5072960;28;20093;-79
2023/06/23 00:47:24;;;;;;;1.55;1.45;;;;;;;;;;5035274;28;20515;-79
2023/06/23 00:49:49;;;;;;;2.75;1.77;;;;;;;;;;5055262;28;20028;-78
2023/06/23 00:52:16;;;;;;;1.50;1.40;;;;;;;;;;5055298;28;20035;-78
2023/06/23 00:54:41;;;;;;;1.90;1.70;;;;;;;;;;5038275;28;20507;-79
2023/06/23 00:57:07;;;;;;;2.13;1.50;;;;;;;;;;5054935;28;20131;-78
2023/06/23 00:59:32;;;;;;;4.10;1.50;;;;;;;;;;5038321;28;20047;-79
2023/06/23 01:01:59;;;;;;;1.80;1.55;;;;;;;;;;5054879;28;20123;-78
2023/06/23 01:04:29;;;;;;;2.05;1.30;;;;;;;;;;5038242;28;20024;-79
2023/06/23 01:06:57;;;;;;;1.42;1.30;;;;;;;;;;5055046;28;20493;-80
2023/06/23 01:09:36;;;;;;;2.60;1.52;;;;;;;;;;5038243;28;20028;-79
2023/06/23 01:12:04;;;;;;;1.50;1.40;;;;;;;;;;5055238;28;20031;-79
2023/06/23 01:15:02;;;;;;;1.50;1.40;;;;;;;;;;5054827;28;20054;-79
2023/06/23 01:17:33;;;;;;;2.03;1.25;;;;;;;;;;5053292;28;20052;-79
2023/06/23 01:20:21;;;;;;;1.40;1.30;;;;;;;;;;5054670;28;20156;-79
2023/06/23 01:23:08;;;;;;;1.70;1.60;;;;;;;;;;5059441;28;20107;-79
2023/06/23 01:25:55;;;;;;;2.22;1.48;;;;;;;;;;5076435;28;20475;-79
2023/06/23 01:28:58;;;;;;;1.50;1.40;;;;;;;;;;5058576;28;20028;-80
2023/06/23 01:31:39;;;;;;;1.48;1.35;;;;;;;;;;5076277;28;20025;-80
2023/06/23 01:34:08;;;;;;;1.92;1.60;;;;;;;;;;5058809;28;20017;-80
2023/06/23 01:36:41;;;;;;;1.55;1.45;;;;;;;;;;5058188;28;20116;-80
2023/06/23 01:39:11;;;;;;;1.38;1.27;;;;;;;;;;5041808;28;20024;-80
2023/06/23 01:41:44;;;;;;;2.85;1.30;;;;;;;;;;5058566;28;20475;-80
2023/06/23 01:44:14;;;;;;;1.95;1.48;;;;;;;;;;5058692;28;20042;-80
2023/06/23 01:46:42;;;;;;;2.70;1.33;;;;;;;;;;5058501;28;20033;-79
2023/06/23 01:49:13;;;;;;;2.58;1.40;;;;;;;;;;5058590;28;20533;-80
2023/06/23 01:51:44;;;;;;;1.50;1.40;;;;;;;;;;5058534;28;20122;-80
2023/06/23 01:54:11;;;;;;;2.13;1.50;;;;;;;;;;5041382;28;20115;-80
2023/06/23 01:56:39;;;;;;;2.35;1.40;;;;;;;;;;5057945;28;20053;-80
2023/06/23 01:59:05;;;;;;;2.08;1.40;;;;;;;;;;5041455;28;20055;-79
2023/06/23 02:01:32;;;;;;;2.47;1.40;;;;;;;;;;5057989;28;20032;-80
2023/06/23 02:03:59;;;;;;;1.83;1.40;;;;;;;;;;5076192;28;20074;-79
2023/06/23 02:06:26;;;;;;;3.35;1.55;;;;;;;;;;5057896;28;20023;-80
2023/06/23 02:08:51;;;;;;;1.38;1.27;;;;;;;;;;5058187;28;20031;-80
2023/06/23 02:11:17;;;;;;;1.40;1.30;;;;;;;;;;5076275;28;20025;-80
2023/06/23 02:13:43;;;;;;;2.28;1.50;;;;;;;;;;5040998;28;20542;-80
2023/06/23 02:16:09;;;;;;;2.35;1.52;;;;;;;;;;5057842;28;20097;-79
2023/06/23 02:18:35;;;;;;;1.88;1.40;;;;;;;;;;5058095;28;20503;-79
2023/06/23 02:21:02;;;;;;;1.75;1.50;;;;;;;;;;5040915;28;20043;-81
2023/06/23 02:23:28;;;;;;;1.40;1.30;;;;;;;;;;5057752;28;20070;-81
2023/06/23 02:25:54;;;;;;;1.60;1.25;;;;;;;;;;5057788;28;20025;-81
2023/06/23 02:28:19;;;;;;;2.65;1.30;;;;;;;;;;5057746;28;20530;-80
2023/06/23 02:30:46;;;;;;;1.65;1.35;;;;;;;;;;5057698;28;20062;-81
2023/06/23 02:33:11;;;;;;;2.00;1.60;;;;;;;;;;5057119;28;20028;-80
2023/06/23 02:35:37;;;;;;;1.52;1.42;;;;;;;;;;5057772;28;20020;-81
2023/06/23 02:38:04;;;;;;;2.65;1.95;;;;;;;;;;5057657;28;20530;-81
2023/06/23 02:40:31;;;;;;;1.70;1.60;;;;;;;;;;5057280;28;20029;-81
2023/06/23 02:43:02;;;;;;;1.58;1.42;;;;;;;;;;5040612;28;20016;-81
2023/06/23 02:45:35;;;;;;;2.05;1.70;;;;;;;;;;5057681;28;20021;-81
2023/06/23 02:48:00;;;;;;;2.35;1.63;;;;;;;;;;5057394;28;20029;-82
2023/06/23 02:50:30;;;;;;;2.47;1.70;;;;;;;;;;5057186;28;20163;-82
2023/06/23 02:53:16;;;;;;;1.88;1.60;;;;;;;;;;5057090;28;20411;-81
2023/06/23 02:55:47;;;;;;;1.50;1.40;;;;;;;;;;5057096;28;20040;-81
2023/06/23 02:58:13;;;;;;;1.70;1.60;;;;;;;;;;5040631;28;20031;-81
2023/06/23 03:00:39;;;;;;;1.70;1.55;;;;;;;;;;5056970;28;20113;-82
2023/06/23 03:03:09;;;;;;;1.70;1.60;;;;;;;;;;5074695;28;20020;-80
2023/06/23 03:05:35;;;;;;;1.65;1.55;;;;;;;;;;5040338;28;20035;-80
2023/06/23 03:08:01;;;;;;;2.15;1.83;;;;;;;;;;5074910;28;20025;-80
2023/06/23 03:10:28;;;;;;;2.65;1.98;;;;;;;;;;5057145;28;20467;-80
2023/06/23 03:12:53;;;;;;;1.95;1.60;;;;;;;;;;5056725;28;20078;-80
2023/06/23 03:15:19;;;;;;;2.42;1.52;;;;;;;;;;5039930;28;20395;-79
2023/06/23 03:17:46;;;;;;;1.73;1.60;;;;;;;;;;5074647;28;20029;-80
2023/06/23 03:20:18;;;;;;;1.80;1.70;;;;;;;;;;5074255;28;20052;-80
2023/06/23 03:22:46;;;;;;;2.13;1.88;;;;;;;;;;5074222;28;20111;-80
2023/06/23 03:25:18;;;;;;;1.92;1.67;;;;;;;;;;5056715;28;20024;-80
2023/06/23 03:27:45;;;;;;;2.42;1.70;;;;;;;;;;5056367;28;20023;-80
2023/06/23 03:30:19;;;;;;;1.90;1.70;;;;;;;;;;5039272;28;20426;-80
2023/06/23 03:32:50;;;;;;;2.38;1.60;;;;;;;;;;5055986;28;20032;-80
2023/06/23 03:35:38;;;;;;;2.55;1.90;;;;;;;;;;5056117;28;20043;-80
2023/06/23 03:38:08;;;;;;;2.83;2.10;;;;;;;;;;5056429;28;20037;-80
2023/06/23 03:40:39;;;;;;;11.45;2.00;;;;;;;;;;5073848;28;20021;-80
2023/06/23 03:43:13;;;;;;;2.75;2.00;;;;;;;;;;5055805;28;20380;-80
2023/06/23 03:45:39;;;;;;;2.70;2.10;;;;;;;;;;5055692;28;20475;-79
2023/06/23 03:48:08;;;;;;;3.25;1.90;;;;;;;;;;5056200;28;20051;-79
2023/06/23 03:50:35;;;;;;;2.83;2.13;;;;;;;;;;5039115;28;20040;-79
2023/06/23 03:53:05;;;;;;;2.30;2.10;;;;;;;;;;5055612;28;20032;-79
2023/06/23 03:55:33;;;;;;;2.28;1.92;;;;;;;;;;5055542;28;20495;-79
2023/06/23 03:58:05;;;;;;;2.08;1.88;;;;;;;;;;5055604;28;20051;-79
2023/06/23 04:00:32;;;;;;;2.53;1.85;;;;;;;;;;5038805;28;20035;-79
2023/06/23 04:02:58;;;;;;;3.25;2.10;;;;;;;;;;5039749;28;20035;-79
2023/06/23 04:05:26;;;;;;;2.38;2.03;;;;;;;;;;5073597;28;20035;-79
2023/06/23 04:07:52;;;;;;;1.98;1.85;;;;;;;;;;5055873;28;20109;-78
2023/06/23 04:10:19;;;;;;;2.65;2.08;;;;;;;;;;5073729;28;20056;-78
2023/06/23 04:12:45;;;;;;;2.47;2.08;;;;;;;;;;5039090;28;20581;-79
2023/06/23 04:15:11;;;;;;;3.38;2.58;;;;;;;;;;5073643;28;20021;-77
2023/06/23 04:17:38;;;;;;;2.30;2.08;;;;;;;;;;5074133;28;20060;-77
2023/06/23 04:20:05;;;;;;;4.07;2.30;;;;;;;;;;5039169;28;20036;-78
2023/06/23 04:22:33;;;;;;;3.88;2.03;;;;;;;;;;5073816;28;20085;-77
2023/06/23 04:24:59;;;;;;;8.48;2.95;;;;;;;;;;5055773;28;20039;-77
2023/06/23 04:27:25;;;;;;;7.05;3.70;;;;;;;;;;5055530;28;20036;-76
2023/06/23 04:29:52;;;;;;;6.25;3.47;;;;;;;;;;5039215;28;20032;-79
2023/06/23 04:32:17;;;;;;;6.85;3.42;;;;;;;;;;5056192;28;20475;-77
2023/06/23 04:34:43;;;;;;;7.53;4.00;;;;;;;;;;5056341;28;20028;-78
2023/06/23 04:37:34;;;;;;;9.35;3.65;;;;;;;;;;5056418;28;20032;-78
2023/06/23 04:40:06;;;;;;;9.35;3.85;;;;;;;;;;5074604;28;20028;-79
2023/06/23 04:43:12;;;;;;;7.75;3.50;;;;;;;;;;5039537;28;20451;-77
2023/06/23 04:45:41;;;;;;;9.68;3.67;;;;;;;;;;5008387;28;20067;-78
2023/06/23 04:48:09;;;;;;;9.40;3.80;;;;;;;;;;5055374;28;20079;-80
2023/06/23 04:50:35;;;;;;;12.95;3.60;;;;;;;;;;5055214;28;20021;-78
2023/06/23 04:53:05;;;;;;;10.32;3.60;;;;;;;;;;5055308;28;20103;-78
2023/06/23 04:55:34;;;;;;;10.77;4.88;;;;;;;;;;5058103;28;20048;-77
2023/06/23 04:58:03;;;;;;;6.72;3.33;;;;;;;;;;5062419;28;20043;-76
2023/06/23 05:00:30;;;;;;;5.57;3.25;;;;;;;;;;5079660;28;20028;-78
2023/06/23 05:02:56;;;;;;;8.98;3.28;;;;;;;;;;5061951;28;20020;-78
2023/06/23 05:05:24;;;;;;;6.82;3.55;;;;;;;;;;5061632;28;20107;-77
2023/06/23 05:07:51;;;;;;;4.47;3.22;;;;;;;;;;5061813;28;20047;-77
2023/06/23 05:10:20;;;;;;;8.10;3.47;;;;;;;;;;5062011;28;20024;-78
2023/06/23 05:12:48;;;;;;;7.43;3.20;;;;;;;;;;5061595;28;20028;-77
2023/06/23 05:15:14;;;;;;;7.35;3.33;;;;;;;;;;5044932;28;20471;-77
2023/06/23 05:17:39;;;;;;;4.40;3.20;;;;;;;;;;5061996;28;20041;-78
2023/06/23 05:20:06;;;;;;;6.32;3.30;;;;;;;;;;5061817;28;20032;-77
2023/06/23 05:22:34;;;;;;;7.10;3.08;;;;;;;;;;5061479;28;20063;-78
2023/06/23 05:25:04;;;;;;;5.63;2.92;;;;;;;;;;5061721;28;20559;-77
2023/06/23 05:27:30;;;;;;;7.82;3.30;;;;;;;;;;5079707;28;20040;-78
2023/06/23 05:29:57;;;;;;;8.02;3.30;;;;;;;;;;5079467;28;20395;-78
2023/06/23 05:32:24;;;;;;;4.80;2.80;;;;;;;;;;5044764;28;20077;-77
2023/06/23 05:34:50;;;;;;;4.28;3.05;;;;;;;;;;5061914;28;20387;-77
2023/06/23 05:37:20;;;;;;;4.15;2.92;;;;;;;;;;5062108;28;20071;-78
2023/06/23 05:39:47;;;;;;;3.47;2.88;;;;;;;;;;5061887;28;20039;-78
2023/06/23 05:42:12;;;;;;;4.55;2.90;;;;;;;;;;5061428;28;20024;-76
2023/06/23 05:44:38;;;;;;;3.85;2.80;;;;;;;;;;5079322;28;20166;-77
2023/06/23 05:47:05;;;;;;;5.60;3.33;;;;;;;;;;5061619;28;20047;-76
2023/06/23 05:49:35;;;;;;;5.57;3.17;;;;;;;;;;5061497;28;20074;-77
2023/06/23 05:52:01;;;;;;;3.50;3.10;;;;;;;;;;5061456;28;20070;-77
2023/06/23 05:54:28;;;;;;;12.02;4.93;;;;;;;;;;5061408;28;20036;-78
2023/06/23 05:57:02;;;;;;;19.13;7.18;;;;;;;;;;5060528;28;20509;-77
2023/06/23 05:59:30;;;;;;;19.50;8.48;;;;;;;;;;5060850;28;20077;-78
2023/06/23 06:01:58;;;;;;;17.85;8.25;;;;;;;;;;5078699;28;20028;-77
2023/06/23 06:04:29;;;;;;;22.70;8.63;;;;;;;;;;5078748;28;20497;-78
2023/06/23 06:06:56;;;;;;;13.63;7.20;;;;;;;;;;5076664;28;20050;-78
2023/06/23 06:09:22;;;;;;;12.13;7.45;;;;;;;;;;5040947;28;20055;-77
2023/06/23 06:11:48;;;;;;;12.52;7.18;;;;;;;;;;5075332;28;20077;-78
2023/06/23 06:14:15;;;;;;;12.43;7.18;;;;;;;;;;5057421;28;20481;-78
2023/06/23 06:16:41;;;;;;;15.23;6.38;;;;;;;;;;5057386;28;20090;-78
2023/06/23 06:19:07;;;;;;;8.98;6.05;;;;;;;;;;5057376;28;20060;-78
2023/06/23 06:21:33;;;;;;;9.27;5.80;;;;;;;;;;5057406;28;20025;-77
2023/06/23 06:24:00;;;;;;;7.82;5.88;;;;;;;;;;5024121;28;20025;-80
2023/06/23 06:26:26;;;;;;;7.63;4.68;;;;;;;;;;5057253;28;20078;-78
2023/06/23 06:28:54;;;;;;;7.25;4.68;;;;;;;;;;5074942;28;20426;-78
2023/06/23 06:31:19;;;;;;;9.00;5.10;;;;;;;;;;5057306;28;20491;-78
2023/06/23 06:33:46;;;;;;;6.95;4.43;;;;;;;;;;5057097;28;20039;-77
2023/06/23 06:36:12;;;;;;;7.30;4.50;;;;;;;;;;5057062;28;20108;-78
2023/06/23 06:38:38;;;;;;;5.78;4.35;;;;;;;;;;5040833;28;20056;-77
2023/06/23 06:41:07;;;;;;;5.50;3.90;;;;;;;;;;5057364;28;20082;-78
2023/06/23 06:43:33;;;;;;;5.45;3.90;;;;;;;;;;5057388;28;20407;-77
2023/06/23 06:46:00;;;;;;;5.47;3.50;;;;;;;;;;5075002;28;20111;-77
2023/06/23 06:48:27;;;;;;;8.13;4.28;;;;;;;;;;5057185;28;20039;-79
2023/06/23 06:50:53;;;;;;;10.57;4.15;;;;;;;;;;5076145;28;20066;-78
2023/06/23 06:53:19;;;;;;;5.78;4.00;;;;;;;;;;5056698;28;20050;-78
2023/06/23 06:55:45;;;;;;;14.13;5.35;;;;;;;;;;5039922;28;20497;-78
2023/06/23 06:58:11;;;;;;;9.73;4.78;;;;;;;;;;5040388;28;20491;-78
2023/06/23 07:00:36;;;;;;;15.95;5.63;;;;;;;;;;5056788;28;20044;-78
2023/06/23 07:03:03;;;;;;;12.93;5.78;;;;;;;;;;5074588;28;20025;-77
2023/06/23 07:05:28;;;;;;;13.68;6.38;;;;;;;;;;5056537;28;20475;-77
2023/06/23 07:07:54;;;;;;;17.90;5.63;;;;;;;;;;5056527;28;20032;-78
2023/06/23 07:10:19;;;;;;;13.95;6.07;;;;;;;;;;5056293;28;20391;-78
2023/06/23 07:12:45;;;;;;;12.77;5.30;;;;;;;;;;5074067;28;20037;-77
2023/06/23 07:15:10;;;;;;;15.68;5.35;;;;;;;;;;5055667;28;20032;-78
2023/06/23 07:17:35;;;;;;;15.25;6.28;;;;;;;;;;5039188;28;20051;-77
2023/06/23 07:20:01;;;;;;;12.35;5.45;;;;;;;;;;5054522;28;20033;-77
2023/06/23 07:22:26;;;;;;;10.88;5.18;;;;;;;;;;5056163;28;20035;-78
2023/06/23 07:24:53;;;;;;;7.05;4.78;;;;;;;;;;5056106;28;20467;-78
2023/06/23 07:27:19;;;;;;;13.75;4.80;;;;;;;;;;5056299;28;20086;-78
2023/06/23 07:29:44;;;;;;;15.00;5.38;;;;;;;;;;5055897;28;20021;-77
2023/06/23 07:32:10;;;;;;;9.85;4.80;;;;;;;;;;5055995;28;20029;-79
2023/06/23 07:34:35;;;;;;;10.43;4.45;;;;;;;;;;5039222;28;20481;-78
2023/06/23 07:37:01;;;;;;;9.60;4.13;;;;;;;;;;5038880;28;20037;-78
2023/06/23 07:39:26;;;;;;;12.55;4.13;;;;;;;;;;5074481;28;20077;-78
2023/06/23 07:41:52;;;;;;;5.97;3.80;;;;;;;;;;5074491;28;20471;-79
2023/06/23 07:44:17;;;;;;;6.43;3.47;;;;;;;;;;5039762;28;20029;-79
2023/06/23 07:46:43;;;;;;;7.00;3.50;;;;;;;;;;5074083;28;20032;-78
2023/06/23 07:49:08;;;;;;;6.68;3.80;;;;;;;;;;5039740;28;20056;-79
2023/06/23 07:51:34;;;;;;;5.05;3.35;;;;;;;;;;5056510;28;20498;-79
2023/06/23 07:53:59;;;;;;;5.97;3.60;;;;;;;;;;5073632;28;20035;-79
2023/06/23 07:56:24;;;;;;;5.38;3.50;;;;;;;;;;5074007;28;20495;-78
2023/06/23 07:58:50;;;;;;;7.18;3.63;;;;;;;;;;5056161;28;20111;-79
2023/06/23 08:01:15;;;;;;;6.82;3.50;;;;;;;;;;5074398;28;20025;-78
2023/06/23 08:03:46;;;;;;;5.75;3.50;;;;;;;;;;5074186;28;20020;-79
2023/06/23 08:06:11;;;;;;;7.72;3.33;;;;;;;;;;5056092;28;20482;-79
2023/06/23 08:08:36;;;;;;;5.75;3.42;;;;;;;;;;5074204;28;20107;-78
2023/06/23 08:11:02;;;;;;;4.53;2.85;;;;;;;;;;5055774;28;20029;-77
2023/06/23 08:13:27;;;;;;;6.45;3.53;;;;;;;;;;5039112;28;20056;-77
2023/06/23 08:15:52;;;;;;;5.97;3.20;;;;;;;;;;5073638;28;20024;-78
2023/06/23 08:18:18;;;;;;;3.70;3.08;;;;;;;;;;5073934;28;20036;-80
2023/06/23 08:20:43;;;;;;;4.90;2.75;;;;;;;;;;5073322;28;20032;-78
2023/06/23 08:23:09;;;;;;;14.63;4.25;;;;;;;;;;5055949;28;20380;-78
2023/06/23 08:25:34;;;;;;;9.73;3.90;;;;;;;;;;5073732;28;20086;-78
2023/06/23 08:27:59;;;;;;;10.55;4.13;;;;;;;;;;5073604;28;20463;-78
2023/06/23 08:30:30;;;;;;;6.57;3.70;;;;;;;;;;5055262;28;20111;-79
2023/06/23 08:32:56;;;;;;;20.25;3.92;;;;;;;;;;5073596;28;20020;-78
2023/06/23 08:35:22;;;;;;;10.45;3.75;;;;;;;;;;5038776;28;20039;-78
2023/06/23 08:37:47;;;;;;;11.60;3.72;;;;;;;;;;5055638;28;20029;-78
2023/06/23 08:40:13;;;;;;;9.25;3.53;;;;;;;;;;5056141;28;20081;-77
2023/06/23 08:42:39;;;;;;;8.82;3.70;;;;;;;;;;5055789;28;20082;-78
2023/06/23 08:45:07;;;;;;;13.95;3.70;;;;;;;;;;5073933;28;20033;-80
2023/06/23 08:47:35;;;;;;;8.60;3.78;;;;;;;;;;5055327;28;20037;-78
2023/06/23 08:50:01;;;;;;;13.07;3.78;;;;;;;;;;5055984;28;20039;-78
2023/06/23 08:52:26;;;;;;;9.27;3.20;;;;;;;;;;5073752;28;20024;-78
2023/06/23 08:54:52;;;;;;;10.48;3.30;;;;;;;;;;5038824;28;20071;-78
2023/06/23 08:57:18;;;;;;;12.05;3.53;;;;;;;;;;5038620;28;20049;-79
2023/06/23 08:59:43;;;;;;;8.15;3.05;;;;;;;;;;5073189;28;20055;-79
2023/06/23 09:02:09;;;;;;;7.75;3.17;;;;;;;;;;5073749;28;20551;-79
2023/06/23 09:04:34;;;;;;;7.82;3.30;;;;;;;;;;5038525;28;20025;-79
2023/06/23 09:07:00;;;;;;;7.50;3.25;;;;;;;;;;5055221;28;20055;-79
2023/06/23 09:09:25;;;;;;;4.38;2.58;;;;;;;;;;5073353;28;20058;-78
2023/06/23 09:11:51;;;;;;;7.68;2.83;;;;;;;;;;5055145;28;20484;-80
2023/06/23 09:14:17;;;;;;;6.80;2.75;;;;;;;;;;5055101;28;20462;-79
2023/06/23 09:16:45;;;;;;;5.70;3.00;;;;;;;;;;5073407;28;20116;-78
2023/06/23 09:19:11;;;;;;;3.88;2.60;;;;;;;;;;5054982;28;20083;-78
2023/06/23 09:21:37;;;;;;;4.43;3.10;;;;;;;;;;5055077;28;20032;-80
2023/06/23 09:24:04;;;;;;;5.07;2.90;;;;;;;;;;5055225;28;20020;-80
2023/06/23 09:26:42;;;;;;;11.07;3.95;;;;;;;;;;5055139;28;20036;-79
2023/06/23 09:29:35;;;;;;;13.38;4.15;;;;;;;;;;5072926;28;20558;-78
2023/06/23 09:32:02;;;;;;;13.48;4.22;;;;;;;;;;5051689;28;20040;-79
2023/06/23 09:34:36;;;;;;;10.63;3.60;;;;;;;;;;5038455;28;20078;-78
2023/06/23 09:37:08;;;;;;;6.25;3.55;;;;;;;;;;5073134;28;20029;-78
2023/06/23 09:39:35;;;;;;;9.45;3.70;;;;;;;;;;5073082;28;20028;-79
2023/06/23 09:42:04;;;;;;;7.72;3.80;;;;;;;;;;5022606;28;20028;-80
2023/06/23 09:44:35;;;;;;;7.53;3.50;;;;;;;;;;5058700;28;20024;-80
2023/06/23 09:47:04;;;;;;;10.82;3.47;;;;;;;;;;5058812;28;20024;-81
2023/06/23 09:49:38;;;;;;;7.30;3.70;;;;;;;;;;5058410;28;20479;-80
2023/06/23 09:52:03;;;;;;;10.40;3.80;;;;;;;;;;5058867;28;20020;-81
2023/06/23 09:54:34;;;;;;;5.57;3.10;;;;;;;;;;5058449;28;20055;-80
2023/06/23 09:57:08;;;;;;;8.18;3.13;;;;;;;;;;5041207;28;20400;-79
2023/06/23 09:59:37;;;;;;;9.35;3.20;;;;;;;;;;5039076;28;20474;-80
2023/06/23 10:02:03;;;;;;;6.20;3.15;;;;;;;;;;5038408;28;20024;-81
2023/06/23 10:04:31;;;;;;;4.07;2.72;;;;;;;;;;5038391;28;20044;-80
2023/06/23 10:06:58;;;;;;;7.57;3.13;;;;;;;;;;5038754;28;20107;-78
2023/06/23 10:09:24;;;;;;;4.63;2.67;;;;;;;;;;5038307;28;20025;-80
2023/06/23 10:11:50;;;;;;;7.45;2.92;;;;;;;;;;5038780;28;20055;-78
2023/06/23 10:14:16;;;;;;;5.20;3.05;;;;;;;;;;5056374;28;20057;-81
2023/06/23 10:16:45;;;;;;;7.60;2.80;;;;;;;;;;5022048;28;20029;-80
2023/06/23 10:19:12;;;;;;;15.38;4.35;;;;;;;;;;5021826;28;20033;-79
2023/06/23 10:21:39;;;;;;;7.90;3.83;;;;;;;;;;5037990;28;20438;-80
2023/06/23 10:24:07;;;;;;;11.55;3.33;;;;;;;;;;5038228;28;20020;-79
2023/06/23 10:26:36;;;;;;;7.25;3.33;;;;;;;;;;5038409;28;20079;-80
2023/06/23 10:29:04;;;;;;;8.75;3.30;;;;;;;;;;5039084;28;20036;-81
2023/06/23 10:31:31;;;;;;;8.98;3.13;;;;;;;;;;5038110;28;20430;-79
2023/06/23 10:34:01;;;;;;;4.78;3.00;;;;;;;;;;5038210;28;20454;-79
2023/06/23 10:36:30;;;;;;;7.03;2.83;;;;;;;;;;5038476;28;20029;-80
2023/06/23 10:38:59;;;;;;;5.85;2.88;;;;;;;;;;5037956;28;20100;-79
2023/06/23 10:41:26;;;;;;;5.45;2.50;;;;;;;;;;5037902;28;20052;-80
2023/06/23 10:43:55;;;;;;;7.45;2.80;;;;;;;;;;5021271;28;20090;-81
2023/06/23 10:46:22;;;;;;;9.75;3.65;;;;;;;;;;5037931;28;20021;-80
2023/06/23 10:48:48;;;;;;;14.18;4.43;;;;;;;;;;5037633;28;20059;-78
2023/06/23 10:51:14;;;;;;;11.30;3.35;;;;;;;;;;5021407;28;20070;-80
2023/06/23 10:53:59;;;;;;;8.18;3.33;;;;;;;;;;5037375;28;20029;-80
2023/06/23 10:56:37;;;;;;;6.53;3.42;;;;;;;;;;5067614;28;20037;-80
2023/06/23 10:59:25;;;;;;;7.30;3.38;;;;;;;;;;5040700;28;20044;-80
2023/06/23 11:02:00;;;;;;;7.70;2.75;;;;;;;;;;5057242;28;20016;-80
2023/06/23 11:04:26;;;;;;;6.93;3.03;;;;;;;;;;5056963;28;20025;-80
2023/06/23 11:07:07;;;;;;;7.25;3.05;;;;;;;;;;5057237;28;20391;-79
2023/06/23 11:09:44;;;;;;;8.50;3.10;;;;;;;;;;5075299;28;20070;-79
2023/06/23 11:12:33;;;;;;;8.55;3.42;;;;;;;;;;5075695;28;20132;-79
2023/06/23 11:15:08;;;;;;;6.28;3.20;;;;;;;;;;5057818;28;20051;-80
2023/06/23 11:17:40;;;;;;;5.75;3.38;;;;;;;;;;5075161;28;20025;-80
2023/06/23 11:20:13;;;;;;;5.97;3.15;;;;;;;;;;5074849;28;20028;-79
2023/06/23 11:22:40;;;;;;;7.45;3.15;;;;;;;;;;5057504;28;20531;-79
2023/06/23 11:25:06;;;;;;;3.97;2.75;;;;;;;;;;5040266;28;20029;-79
2023/06/23 11:27:32;;;;;;;4.95;2.88;;;;;;;;;;5056812;28;20438;-79
2023/06/23 11:30:17;;;;;;;5.15;2.70;;;;;;;;;;5057222;28;20089;-79
2023/06/23 11:32:43;;;;;;;6.25;3.20;;;;;;;;;;5074993;28;20483;-79
2023/06/23 11:35:10;;;;;;;6.18;2.90;;;;;;;;;;5040258;28;20046;-80
2023/06/23 11:37:38;;;;;;;5.03;2.40;;;;;;;;;;5057396;28;20028;-79
2023/06/23 11:40:05;;;;;;;5.28;2.50;;;;;;;;;;5058081;28;20070;-80
2023/06/23 11:42:31;;;;;;;4.60;2.67;;;;;;;;;;5057490;28;20031;-80
2023/06/23 11:44:57;;;;;;;4.65;2.58;;;;;;;;;;5057485;28;20020;-80
2023/06/23 11:47:26;;;;;;;4.47;2.72;;;;;;;;;;5024186;28;20474;-80
2023/06/23 11:49:53;;;;;;;4.63;2.60;;;;;;;;;;5056698;28;20471;-79
2023/06/23 11:52:20;;;;;;;4.82;2.70;;;;;;;;;;5056798;28;20029;-79
2023/06/23 11:54:48;;;;;;;2.80;2.28;;;;;;;;;;5056416;28;20490;-79
2023/06/23 11:57:18;;;;;;;8.40;2.75;;;;;;;;;;5038882;28;20132;-79
2023/06/23 11:59:43;;;;;;;10.98;2.35;;;;;;;;;;5054149;28;20079;-80
2023/06/23 12:02:08;;;;;;;5.82;2.50;;;;;;;;;;5036307;28;20045;-83
2023/06/23 12:04:35;;;;;;;5.07;2.53;;;;;;;;;;5055143;28;20032;-79
2023/06/23 12:07:00;;;;;;;5.80;2.33;;;;;;;;;;5037689;28;20035;-81
2023/06/23 12:09:26;;;;;;;7.10;2.67;;;;;;;;;;5038501;28;20107;-77
2023/06/23 12:11:53;;;;;;;9.65;3.70;;;;;;;;;;5054869;28;20036;-81
2023/06/23 12:14:18;;;;;;;7.72;3.60;;;;;;;;;;5036776;28;20496;-80
2023/06/23 12:16:43;;;;;;;8.95;3.35;;;;;;;;;;5053645;28;20079;-80
2023/06/23 12:19:09;;;;;;;6.65;3.47;;;;;;;;;;5054197;28;20033;-80
2023/06/23 12:21:39;;;;;;;9.50;3.15;;;;;;;;;;5035923;28;20439;-78
2023/06/23 12:24:04;;;;;;;15.57;3.63;;;;;;;;;;5036387;28;20056;-79
2023/06/23 12:26:30;;;;;;;13.55;4.25;;;;;;;;;;5035934;28;20052;-79
2023/06/23 12:29:09;;;;;;;8.60;3.45;;;;;;;;;;5020183;28;20416;-80
2023/06/23 12:31:35;;;;;;;7.63;3.50;;;;;;;;;;5037908;28;20079;-81
2023/06/23 12:34:01;;;;;;;5.88;3.08;;;;;;;;;;5036626;28;20029;-80
2023/06/23 12:36:27;;;;;;;7.95;3.25;;;;;;;;;;5053880;28;20108;-80
2023/06/23 12:38:56;;;;;;;5.28;3.20;;;;;;;;;;5036481;28;20451;-81
2023/06/23 12:41:26;;;;;;;10.88;3.50;;;;;;;;;;5037634;28;20550;-81
2023/06/23 12:43:59;;;;;;;4.90;2.60;;;;;;;;;;5054979;28;20476;-80
2023/06/23 12:46:25;;;;;;;5.45;3.22;;;;;;;;;;5036261;28;20029;-81
2023/06/23 12:48:51;;;;;;;5.32;2.72;;;;;;;;;;5019427;28;20098;-82
2023/06/23 12:51:17;;;;;;;4.15;2.80;;;;;;;;;;5037141;28;20025;-82
2023/06/23 12:53:42;;;;;;;6.70;2.92;;;;;;;;;;5054402;28;20033;-81
2023/06/23 12:56:08;;;;;;;5.45;3.00;;;;;;;;;;5065178;28;20072;-82
2023/06/23 12:58:34;;;;;;;4.32;2.95;;;;;;;;;;5076295;28;20029;-81
2023/06/23 13:01:02;;;;;;;4.82;2.72;;;;;;;;;;5061198;28;20029;-81
2023/06/23 13:03:27;;;;;;;5.57;2.97;;;;;;;;;;5059924;28;20025;-80
2023/06/23 13:05:54;;;;;;;4.18;2.33;;;;;;;;;;5042835;28;20035;-81
2023/06/23 13:08:19;;;;;;;4.25;2.97;;;;;;;;;;5077035;28;20106;-81
2023/06/23 13:10:45;;;;;;;5.07;2.63;;;;;;;;;;5063674;28;20032;-81
2023/06/23 13:13:11;;;;;;;4.55;2.50;;;;;;;;;;5065138;28;20025;-81
2023/06/23 13:15:36;;;;;;;4.57;2.50;;;;;;;;;;5080883;28;20379;-82
2023/06/23 13:18:03;;;;;;;3.70;2.35;;;;;;;;;;5067642;28;20059;-81
2023/06/23 13:20:29;;;;;;;3.55;2.30;;;;;;;;;;5068283;28;20386;-81
2023/06/23 13:22:54;;;;;;;4.55;2.83;;;;;;;;;;5061471;28;20031;-81
2023/06/23 13:25:20;;;;;;;2.50;2.20;;;;;;;;;;5043743;28;20039;-81
2023/06/23 13:27:45;;;;;;;4.05;2.50;;;;;;;;;;5078416;28;20098;-81
2023/06/23 13:30:11;;;;;;;4.57;2.35;;;;;;;;;;5078146;28;20041;-81
2023/06/23 13:32:39;;;;;;;5.13;2.60;;;;;;;;;;5080938;28;20024;-82
2023/06/23 13:35:05;;;;;;;3.40;2.50;;;;;;;;;;5062387;28;20044;-82
2023/06/23 13:37:34;;;;;;;2.75;2.10;;;;;;;;;;5062917;28;20033;-82
2023/06/23 13:40:00;;;;;;;2.60;2.40;;;;;;;;;;5063871;28;20101;-81
2023/06/23 13:42:25;;;;;;;2.60;2.40;;;;;;;;;;5077667;28;20487;-81
2023/06/23 13:44:50;;;;;;;2.58;2.20;;;;;;;;;;5077618;28;20028;-81
2023/06/23 13:47:16;;;;;;;3.95;2.35;;;;;;;;;;5059180;28;20064;-82
2023/06/23 13:49:41;;;;;;;2.83;2.20;;;;;;;;;;5062835;28;20085;-81
2023/06/23 13:52:07;;;;;;;3.95;2.20;;;;;;;;;;5076754;28;20061;-82
2023/06/23 13:54:33;;;;;;;2.47;2.20;;;;;;;;;;5076723;28;20039;-82
2023/06/23 13:56:59;;;;;;;3.42;2.17;;;;;;;;;;5043653;28;20076;-81
2023/06/23 13:59:24;;;;;;;2.55;2.25;;;;;;;;;;5038915;28;20035;-82
2023/06/23 14:01:50;;;;;;;2.35;2.10;;;;;;;;;;5025044;28;20127;-82
2023/06/23 14:04:20;;;;;;;3.92;2.60;;;;;;;;;;5059464;28;20052;-83
2023/06/23 14:06:47;;;;;;;2.72;2.47;;;;;;;;;;5057900;28;20029;-83
2023/06/23 14:09:16;;;;;;;2.58;2.35;;;;;;;;;;5058103;28;20476;-82
2023/06/23 14:11:41;;;;;;;2.20;2.00;;;;;;;;;;5058989;28;20033;-83
2023/06/23 14:14:07;;;;;;;4.75;2.08;;;;;;;;;;5023178;28;20031;-83
2023/06/23 14:16:33;;;;;;;2.50;2.20;;;;;;;;;;5042269;28;20041;-82
2023/06/23 14:18:58;;;;;;;2.63;2.13;;;;;;;;;;5025051;28;20037;-82
2023/06/23 14:21:24;;;;;;;2.55;1.75;;;;;;;;;;5039931;28;20082;-83
2023/06/23 14:23:49;;;;;;;3.08;2.30;;;;;;;;;;5039658;28;20032;-81
2023/06/23 14:26:15;;;;;;;2.28;2.08;;;;;;;;;;5038853;28;20424;-82
2023/06/23 14:28:40;;;;;;;2.63;2.20;;;;;;;;;;5056875;28;20029;-82
2023/06/23 14:31:07;;;;;;;2.35;2.08;;;;;;;;;;5056459;28;20028;-83
2023/06/23 14:33:33;;;;;;;4.15;2.17;;;;;;;;;;5023350;28;20024;-82
2023/06/23 14:35:58;;;;;;;2.88;2.00;;;;;;;;;;5038902;28;20170;-81
2023/06/23 14:38:24;;;;;;;3.25;2.10;;;;;;;;;;5055956;28;20434;-81
2023/06/23 14:40:49;;;;;;;2.50;1.90;;;;;;;;;;5055539;28;20067;-82
2023/06/23 14:43:15;;;;;;;2.40;2.10;;;;;;;;;;5004545;28;20025;-82
2023/06/23 14:45:41;;;;;;;9.57;2.53;;;;;;;;;;5038510;28;20040;-81